Time;durP1;ratioP1;P1;durP2;ratioP2;P2;SDS_P1;SDS_P2;PMS_P1;PMS_P2;Temp;Humidity;BMP_temperature;BMP_pressure;BME280_temperature;BME280_humidity;BME280_pressure;Samples;Min_cycle;Max_cycle;Signal;HPM_P1;HPM_P2
2023/06/05 00:01:07;;;;;;;81.22;75.42;;;;;;;9.49;55.47;100962.76;1829805;78;25644;-60
2023/06/05 00:03:37;;;;;;;72.65;67.55;;;;;;;9.46;55.67;100956.57;1829920;77;25458;-61
2023/06/05 00:06:03;;;;;;;81.50;75.15;;;;;;;9.44;55.78;100967.66;1829746;78;25408;-60
2023/06/05 00:08:30;;;;;;;83.05;75.83;;;;;;;9.41;56.45;100972.82;1829928;77;25525;-59
2023/06/05 00:10:56;;;;;;;86.33;76.47;;;;;;;9.32;55.85;100966.67;1829908;77;28258;-60
2023/06/05 00:13:22;;;;;;;80.00;73.80;;;;;;;9.28;56.34;100963.47;1829785;77;29685;-61
2023/06/05 00:15:48;;;;;;;85.15;79.47;;;;;;;9.24;56.04;100961.09;1829888;78;25463;-61
2023/06/05 00:18:15;;;;;;;83.42;77.25;;;;;;;9.20;56.37;100966.80;1829918;78;25510;-60
2023/06/05 00:20:41;;;;;;;83.65;77.90;;;;;;;9.18;56.92;100970.31;1829870;77;25467;-60
2023/06/05 00:23:11;;;;;;;77.37;71.75;;;;;;;9.12;56.78;100962.25;1829909;77;27482;-61
2023/06/05 00:25:37;;;;;;;83.12;77.50;;;;;;;9.08;57.13;100960.42;1829742;78;25364;-61
2023/06/05 00:28:03;;;;;;;84.37;78.52;;;;;;;9.04;57.24;100967.45;1829724;77;25551;-61
2023/06/05 00:30:31;;;;;;;33.42;30.88;;;;;;;9.01;57.05;100964.79;1829790;78;25566;-61
2023/06/05 00:32:57;;;;;;;84.65;78.25;;;;;;;8.96;57.48;100965.63;1829947;77;25525;-60
2023/06/05 00:35:23;;;;;;;84.58;78.87;;;;;;;8.91;57.47;100961.62;1829830;78;29691;-61
2023/06/05 00:37:49;;;;;;;20.37;18.73;;;;;;;8.85;57.84;100965.42;1829725;78;25660;-61
2023/06/05 00:40:15;;;;;;;68.97;64.10;;;;;;;8.82;57.69;100962.48;1829816;77;25526;-61
2023/06/05 00:42:42;;;;;;;72.42;66.85;;;;;;;8.77;57.70;100964.14;1829796;78;25871;-60
2023/06/05 00:45:09;;;;;;;61.15;56.65;;;;;;;8.74;58.06;100967.40;1829957;77;25628;-62
2023/06/05 00:47:36;;;;;;;57.35;53.25;;;;;;;8.70;57.79;100957.44;1829829;77;27520;-62
2023/06/05 00:50:04;;;;;;;84.03;78.22;;;;;;;8.66;57.56;100957.75;1829742;77;25675;-60
2023/06/05 00:52:33;;;;;;;82.80;77.08;;;;;;;8.60;57.75;100959.69;1829870;77;25537;-59
2023/06/05 00:55:02;;;;;;;77.67;72.53;;;;;;;8.57;58.36;100960.23;1830008;77;25624;-61
2023/06/05 00:57:29;;;;;;;69.87;64.67;;;;;;;8.51;58.66;100953.25;1829864;77;25552;-59
2023/06/05 00:59:56;;;;;;;84.00;77.75;;;;;;;8.51;58.38;100967.55;1829811;77;27438;-59
2023/06/05 01:02:22;;;;;;;81.35;75.70;;;;;;;8.48;58.01;100961.89;1829758;77;25427;-59
2023/06/05 01:04:48;;;;;;;84.50;78.65;;;;;;;8.46;58.44;100959.47;1829802;78;25355;-61
2023/06/05 01:07:16;;;;;;;84.17;77.97;;;;;;;8.43;58.90;100956.00;1829765;78;25370;-61
2023/06/05 01:09:44;;;;;;;80.75;75.15;;;;;;;8.40;58.63;100961.91;1813753;78;25474;-59
2023/06/05 01:12:28;;;;;;;80.70;75.30;;;;;;;8.36;58.87;100954.09;1829814;78;27551;-59
2023/06/05 01:14:58;;;;;;;83.12;77.27;;;;;;;8.32;59.38;100952.50;1829778;78;25412;-55
2023/06/05 01:17:28;;;;;;;47.65;43.33;;;;;;;8.31;59.57;100956.82;1829863;77;25607;-60
2023/06/05 01:19:55;;;;;;;80.47;74.97;;;;;;;8.29;59.10;100957.12;1829787;77;25380;-59
2023/06/05 01:22:21;;;;;;;87.85;81.67;;;;;;;8.26;59.43;100956.84;1829806;78;25440;-56
2023/06/05 01:24:48;;;;;;;83.67;77.67;;;;;;;8.22;59.28;100949.34;1829846;77;27470;-59
2023/06/05 01:27:19;;;;;;;81.35;75.67;;;;;;;8.20;60.04;100954.17;1829606;78;25909;-59
2023/06/05 01:30:28;;;;;;;83.37;77.67;;;;;;;8.16;60.06;100953.13;1817755;78;25448;-59
2023/06/05 01:33:03;;;;;;;74.65;69.40;;;;;;;8.13;60.07;100956.37;1829841;77;25541;-59
2023/06/05 01:35:35;;;;;;;69.17;64.17;;;;;;;8.08;60.63;100956.94;1829826;77;25518;-60
2023/06/05 01:38:05;;;;;;;51.33;47.23;;;;;;;8.05;60.61;100965.02;1829795;77;27627;-60
2023/06/05 01:40:54;;;;;;;71.97;66.90;;;;;;;8.01;60.27;100955.89;1829721;78;25569;-60
2023/06/05 01:43:20;;;;;;;79.58;73.85;;;;;;;7.97;60.08;100956.98;1670198;85;25708;-59
2023/06/05 01:45:48;;;;;;;81.63;75.85;;;;;;;7.94;60.47;100957.52;1690551;84;25685;-59
2023/06/05 01:48:15;;;;;;;81.80;75.80;;;;;;;7.93;60.86;100962.63;1690647;84;25972;-60
2023/06/05 01:50:42;;;;;;;84.60;78.00;;;;;;;7.88;60.67;100959.95;1690560;84;27486;-60
2023/06/05 01:53:11;;;;;;;82.82;77.10;;;;;;;7.85;60.97;100959.98;1667496;84;25573;-59
2023/06/05 01:55:38;;;;;;;84.52;78.33;;;;;;;7.83;60.91;100956.76;1690627;84;25591;-59
2023/06/05 01:58:05;;;;;;;81.80;75.57;;;;;;;7.82;60.70;100960.52;1690504;84;25537;-59
2023/06/05 02:00:31;;;;;;;79.03;72.95;;;;;;;7.79;60.84;100961.06;1690666;84;25447;-60
2023/06/05 02:02:58;;;;;;;81.53;75.80;;;;;;;7.78;60.70;100959.47;1690664;84;27500;-60
2023/06/05 02:05:24;;;;;;;83.33;77.12;;;;;;;7.74;60.93;100958.94;1690528;84;25457;-60
2023/06/05 02:07:54;;;;;;;76.70;71.28;;;;;;;7.73;61.06;100962.70;1689018;84;25435;-60
2023/06/05 02:10:21;;;;;;;77.90;72.32;;;;;;;7.71;60.86;100960.82;1697294;84;25637;-60
2023/06/05 02:12:48;;;;;;;15.08;5.87;;;;;;;7.70;61.44;100960.02;1697407;84;25402;-59
2023/06/05 02:15:14;;;;;;;82.00;76.02;;;;;;;7.67;61.42;100960.56;1697481;84;25864;-60
2023/06/05 02:17:50;;;;;;;46.20;42.38;;;;;;;7.63;61.35;100958.95;1697351;84;25696;-60
2023/06/05 02:20:16;;;;;;;10.20;5.05;;;;;;;7.64;61.37;100962.45;1697378;84;25607;-60
2023/06/05 02:22:44;;;;;;;10.53;5.87;;;;;;;7.60;61.10;100958.16;1697371;84;25547;-60
2023/06/05 02:25:11;;;;;;;13.72;5.67;;;;;;;7.57;61.22;100953.30;1697460;84;25595;-60
2023/06/05 02:27:38;;;;;;;11.28;6.30;;;;;;;7.54;61.08;100959.77;1697408;84;27042;-60
2023/06/05 02:30:08;;;;;;;11.12;6.12;;;;;;;7.50;61.20;100951.99;1697348;84;25416;-60
2023/06/05 02:32:35;;;;;;;11.10;6.30;;;;;;;7.47;61.29;100954.67;1697547;84;25658;-61
2023/06/05 02:35:04;;;;;;;10.82;6.15;;;;;;;7.43;61.31;100953.06;1697394;84;25583;-60
2023/06/05 02:37:36;;;;;;;13.40;6.20;;;;;;;7.39;61.43;100952.52;1697453;84;25478;-61
2023/06/05 02:39:59;;;;;;;8.30;5.50;;;;;;;7.36;61.58;100952.55;1696842;84;27506;-60
2023/06/05 02:42:25;;;;;;;8.15;6.00;;;;;;;7.34;61.85;100957.91;1713765;81;32687;-60
2023/06/05 02:44:51;;;;;;;12.80;7.33;;;;;;;7.32;61.72;100953.34;1726257;83;25449;-60
2023/06/05 02:47:17;;;;;;;14.00;6.40;;;;;;;7.29;61.54;100959.55;1726190;83;34695;-60
2023/06/05 02:49:43;;;;;;;10.55;5.53;;;;;;;7.26;61.83;100960.08;1726233;83;25565;-60
2023/06/05 02:52:09;;;;;;;9.60;5.78;;;;;;;7.25;61.89;100957.66;1726194;83;27567;-60
2023/06/05 02:54:35;;;;;;;12.23;5.67;;;;;;;7.23;62.03;100956.58;1726155;83;25822;-60
2023/06/05 02:57:02;;;;;;;11.15;5.90;;;;;;;7.24;62.12;100954.71;1726204;83;25571;-60
2023/06/05 02:59:31;;;;;;;11.50;5.42;;;;;;;7.23;62.49;100961.95;1726155;83;25587;-60
2023/06/05 03:01:56;;;;;;;9.75;5.45;;;;;;;7.23;62.51;100964.65;1725972;83;25615;-60
2023/06/05 03:04:23;;;;;;;10.00;5.62;;;;;;;7.21;62.69;100969.50;1726225;83;27525;-59
2023/06/05 03:06:53;;;;;;;10.95;5.85;;;;;;;7.20;62.73;100961.17;1726067;83;25398;-60
2023/06/05 03:09:19;;;;;;;12.10;6.05;;;;;;;7.18;62.87;100955.78;1726427;83;25416;-60
2023/06/05 03:11:45;;;;;;;9.93;5.53;;;;;;;7.18;63.04;100960.61;1726186;83;26045;-59
2023/06/05 03:14:11;;;;;;;12.28;6.05;;;;;;;7.20;63.19;100965.73;1726282;83;25502;-60
2023/06/05 03:16:41;;;;;;;8.18;5.70;;;;;;;7.20;63.10;100969.77;1726165;83;27486;-60
2023/06/05 03:19:06;;;;;;;9.00;5.50;;;;;;;7.19;63.09;100965.48;1725737;83;25617;-60
2023/06/05 03:21:32;;;;;;;7.50;5.45;;;;;;;7.21;63.32;100968.16;1726177;83;25617;-59
2023/06/05 03:23:58;;;;;;;11.78;5.37;;;;;;;7.24;63.53;100973.00;1726148;83;25451;-58
2023/06/05 03:26:25;;;;;;;10.30;5.92;;;;;;;7.26;64.08;100973.53;1726194;83;25547;-60
2023/06/05 03:28:51;;;;;;;11.18;5.67;;;;;;;7.27;64.34;100971.12;1726199;83;27612;-59
2023/06/05 03:31:18;;;;;;;9.23;5.42;;;;;;;7.32;64.64;100968.14;1726100;83;25590;-60
2023/06/05 03:33:45;;;;;;;8.78;5.58;;;;;;;7.33;64.27;100965.19;1726208;83;25604;-60
2023/06/05 03:36:11;;;;;;;11.97;5.95;;;;;;;7.37;64.84;100968.97;1726231;83;25636;-58
2023/06/05 03:38:37;;;;;;;9.58;5.37;;;;;;;7.40;65.17;100974.34;1726199;83;25474;-59
2023/06/05 03:41:04;;;;;;;9.70;5.87;;;;;;;7.41;65.43;100964.64;1726294;83;27510;-58
2023/06/05 03:43:30;;;;;;;10.50;6.05;;;;;;;7.48;65.38;100971.10;1726108;83;25612;-60
2023/06/05 03:45:56;;;;;;;11.18;5.37;;;;;;;7.53;65.85;100974.33;1726173;83;25454;-60
2023/06/05 03:48:22;;;;;;;8.68;5.30;;;;;;;7.58;65.67;100973.78;1726084;83;25569;-60
2023/06/05 03:50:51;;;;;;;9.70;5.03;;;;;;;7.64;65.79;100973.22;1726183;83;25390;-60
2023/06/05 03:53:18;;;;;;;9.05;5.60;;;;;;;7.69;65.87;100965.13;1726015;83;28075;-59
2023/06/05 03:55:46;;;;;;;9.88;4.90;;;;;;;7.76;66.08;100965.64;1726083;83;25780;-59
2023/06/05 03:58:14;;;;;;;9.48;5.05;;;;;;;7.84;66.57;100971.82;1726188;83;25735;-60
2023/06/05 04:00:44;;;;;;;8.08;4.75;;;;;;;7.92;66.75;100969.67;1726408;83;25463;-59
2023/06/05 04:03:12;;;;;;;8.40;5.12;;;;;;;7.99;67.09;100972.32;1726091;83;25591;-59
2023/06/05 04:05:40;;;;;;;9.03;5.10;;;;;;;8.09;67.15;100969.31;1726185;83;28143;-60
2023/06/05 04:08:11;;;;;;;7.35;4.58;;;;;;;8.19;67.43;100972.00;1726049;83;25472;-60
2023/06/05 04:10:38;;;;;;;9.50;4.85;;;;;;;8.29;67.54;100974.64;1726166;83;25627;-59
2023/06/05 04:13:05;;;;;;;12.53;4.95;;;;;;;8.38;67.71;100982.41;1726096;83;25656;-60
2023/06/05 04:15:33;;;;;;;7.58;4.25;;;;;;;8.49;67.60;100979.13;1726261;83;25548;-58
2023/06/05 04:18:01;;;;;;;41.30;38.17;;;;;;;8.60;67.93;100984.75;1726229;83;27672;-59
2023/06/05 04:20:27;;;;;;;83.33;76.97;;;;;;;8.69;67.97;100980.92;1726078;83;25491;-60
2023/06/05 04:22:53;;;;;;;84.90;78.87;;;;;;;8.81;68.24;100981.12;1726125;83;25405;-60
2023/06/05 04:25:19;;;;;;;80.00;74.47;;;;;;;8.91;68.37;100977.80;1726099;83;25603;-60
2023/06/05 04:27:50;;;;;;;82.02;76.53;;;;;;;9.05;68.41;100982.02;1726157;83;25606;-59
2023/06/05 04:30:17;;;;;;;78.00;72.37;;;;;;;9.15;68.41;100981.14;1726190;83;28180;-61
2023/06/05 04:32:52;;;;;;;74.77;69.27;;;;;;;9.29;68.55;100983.99;1726104;83;27432;-60
2023/06/05 04:35:11;;;;;;;83.75;77.72;;;;;;;9.43;68.52;100983.61;1724469;83;25480;-61
2023/06/05 04:37:39;;;;;;;83.95;78.05;;;;;;;9.57;68.41;100990.50;1726179;83;25577;-61
2023/06/05 04:40:09;;;;;;;78.02;72.42;;;;;;;9.70;68.07;100988.48;1726213;83;25481;-62
2023/06/05 04:42:39;;;;;;;80.62;74.92;;;;;;;9.84;68.36;100996.71;1726154;83;27671;-61
2023/06/05 04:45:08;;;;;;;81.72;76.07;;;;;;;9.99;68.17;100998.97;1726051;83;25745;-61
2023/06/05 04:47:35;;;;;;;80.93;75.40;;;;;;;10.12;68.09;101000.98;1726388;83;25577;-61
2023/06/05 04:50:05;;;;;;;80.70;75.42;;;;;;;10.24;67.87;101001.94;1726097;83;25717;-61
2023/06/05 04:52:34;;;;;;;77.40;72.03;;;;;;;10.35;67.64;100996.70;1726195;83;25609;-61
2023/06/05 04:55:02;;;;;;;78.75;73.25;;;;;;;10.52;67.55;100996.73;1726135;83;27467;-61
2023/06/05 04:57:30;;;;;;;78.52;72.80;;;;;;;10.67;67.09;100999.23;1726046;83;25646;-61
2023/06/05 04:59:57;;;;;;;77.80;72.60;;;;;;;10.81;67.03;100999.30;1726122;83;25637;-61
2023/06/05 05:02:23;;;;;;;78.10;73.10;;;;;;;10.97;66.75;101000.69;1726139;83;27711;-60
2023/06/05 05:04:51;;;;;;;74.80;69.80;;;;;;;11.11;66.22;100999.39;1726229;83;25645;-60
2023/06/05 05:07:17;;;;;;;74.32;69.42;;;;;;;11.25;66.31;100989.95;1726080;83;29620;-61
2023/06/05 05:09:45;;;;;;;81.05;75.60;;;;;;;11.43;66.29;100994.29;1726037;83;25757;-61
2023/06/05 05:12:11;;;;;;;75.40;70.50;;;;;;;11.58;64.94;100996.73;1699607;83;25645;-62
2023/06/05 05:14:44;;;;;;;75.80;71.10;;;;;;;11.74;64.96;100998.04;1726102;83;26044;-61
2023/06/05 05:17:06;;;;;;;73.12;68.55;;;;;;;11.91;64.68;100997.48;1724914;83;25453;-61
2023/06/05 05:19:33;;;;;;;80.72;75.37;;;;;;;12.07;64.17;100996.66;1726081;83;27498;-61
2023/06/05 05:21:59;;;;;;;78.67;73.42;;;;;;;12.27;64.00;101001.40;1726032;83;25442;-61
2023/06/05 05:24:25;;;;;;;75.57;70.78;;;;;;;12.47;63.37;100998.25;1726085;83;25583;-61
2023/06/05 05:26:53;;;;;;;76.75;71.80;;;;;;;12.71;62.74;100995.84;1726068;83;25605;-61
2023/06/05 05:29:19;;;;;;;77.12;72.17;;;;;;;12.99;62.18;101000.64;1726112;83;25455;-61
2023/06/05 05:31:45;;;;;;;77.05;72.00;;;;;;;13.33;61.89;101003.92;1726081;83;27598;-61
2023/06/05 05:34:12;;;;;;;73.42;68.12;;;;;;;13.63;61.56;100999.62;1725159;83;25790;-61
2023/06/05 05:36:38;;;;;;;76.02;71.07;;;;;;;13.99;60.87;100997.30;1724687;83;25718;-62
2023/06/05 05:39:07;;;;;;;75.47;70.57;;;;;;;14.32;60.34;100994.17;1724575;83;25637;-62
2023/06/05 05:41:35;;;;;;;77.90;72.90;;;;;;;14.64;59.62;100998.45;1724827;83;25953;-61
2023/06/05 05:44:01;;;;;;;75.78;70.83;;;;;;;14.97;59.25;100989.79;1726895;83;27543;-61
2023/06/05 05:46:28;;;;;;;57.98;53.73;;;;;;;15.28;57.67;101002.41;1727401;82;25650;-60
2023/06/05 05:48:54;;;;;;;76.45;71.55;;;;;;;15.53;57.15;100995.30;1728080;82;26042;-61
2023/06/05 05:51:24;;;;;;;6.50;4.75;;;;;;;15.79;57.24;101003.99;1729073;83;27670;-61
2023/06/05 05:53:50;;;;;;;6.75;3.80;;;;;;;16.07;56.45;101008.42;1729370;83;25617;-59
2023/06/05 05:56:16;;;;;;;29.80;27.13;;;;;;;16.32;55.56;101008.62;1729114;83;27492;-61
2023/06/05 05:58:43;;;;;;;39.35;36.50;;;;;;;16.49;54.57;101009.87;1728989;83;25620;-61
2023/06/05 06:01:09;;;;;;;71.67;66.90;;;;;;;16.69;53.62;101006.94;1729083;83;25609;-60
2023/06/05 06:03:37;;;;;;;73.92;69.17;;;;;;;16.81;52.30;101011.09;1729054;83;25591;-61
2023/06/05 06:06:10;;;;;;;66.10;61.48;;;;;;;16.90;51.52;100998.75;1728372;82;25709;-60
2023/06/05 06:08:39;;;;;;;72.92;68.42;;;;;;;16.90;50.78;100972.00;1727888;82;27492;-60
2023/06/05 06:11:06;;;;;;;73.02;68.42;;;;;;;17.15;50.41;100999.66;1728212;82;25572;-61
2023/06/05 06:13:34;;;;;;;31.77;29.45;;;;;;;17.30;50.21;101005.64;1729118;82;25458;-60
2023/06/05 06:16:03;;;;;;;73.37;68.70;;;;;;;17.46;49.55;101007.16;1729219;82;26101;-61
2023/06/05 06:18:30;;;;;;;73.02;68.65;;;;;;;17.56;48.85;101005.36;1729287;82;25377;-61
2023/06/05 06:20:58;;;;;;;72.75;68.28;;;;;;;17.69;48.68;101013.81;1729071;82;27447;-60
2023/06/05 06:23:25;;;;;;;71.97;67.72;;;;;;;17.84;48.31;101000.05;1729017;83;25520;-61
2023/06/05 06:25:52;;;;;;;73.67;68.85;;;;;;;17.95;46.80;101008.62;1729162;82;25336;-61
2023/06/05 06:28:19;;;;;;;71.72;67.42;;;;;;;18.03;45.45;101004.98;1729049;83;27670;-60
2023/06/05 06:30:47;;;;;;;66.65;62.75;;;;;;;18.15;45.68;101005.55;1729149;83;25320;-60
2023/06/05 06:33:14;;;;;;;71.90;67.22;;;;;;;17.76;45.75;100911.20;1729163;82;28026;-61
2023/06/05 06:35:42;;;;;;;72.87;68.50;;;;;;;18.51;45.95;101007.20;1729074;83;25430;-60
2023/06/05 06:38:09;;;;;;;72.97;68.30;;;;;;;18.74;46.00;101007.50;1729139;82;25401;-61
2023/06/05 06:40:36;;;;;;;75.57;70.97;;;;;;;18.98;45.21;101007.43;1729080;83;25544;-61
2023/06/05 06:43:04;;;;;;;72.42;67.92;;;;;;;19.16;44.08;101009.31;1728400;82;25322;-60
2023/06/05 06:45:32;;;;;;;72.27;67.92;;;;;;;19.36;43.92;101006.13;1726362;83;27993;-57
2023/06/05 06:47:59;;;;;;;73.92;69.35;;;;;;;19.64;43.50;101009.97;1726113;83;25407;-56
2023/06/05 06:50:26;;;;;;;4.40;2.52;;;;;;;19.84;43.00;101002.66;1726243;83;25361;-55
2023/06/05 06:52:54;;;;;;;5.10;1.72;;;;;;;20.11;42.00;101020.17;1726163;83;27775;-58
2023/06/05 06:55:21;;;;;;;34.92;32.08;;;;;;;20.31;41.29;101015.52;1726235;83;25503;-56
2023/06/05 06:57:49;;;;;;;11.83;10.60;;;;;;;20.54;41.30;101012.89;1726237;83;27393;-56
2023/06/05 07:00:17;;;;;;;5.90;1.60;;;;;;;20.78;40.32;101017.36;1726151;83;25517;-56
2023/06/05 07:02:44;;;;;;;70.45;66.40;;;;;;;20.94;39.26;101012.37;1726195;83;25517;-59
2023/06/05 07:05:13;;;;;;;66.17;62.53;;;;;;;21.13;39.29;101000.55;1726196;83;25824;-58
2023/06/05 07:07:40;;;;;;;66.72;62.83;;;;;;;21.36;38.45;101006.89;1726348;83;32615;-57
2023/06/05 07:10:09;;;;;;;67.55;63.85;;;;;;;21.57;38.19;101002.39;1726223;83;27409;-58
2023/06/05 07:12:36;;;;;;;;;;;;;;;21.82;37.50;101000.03;1728708;83;25387;-59
2023/06/05 07:15:06;;;;;;;66.70;63.02;;;;;;;22.12;36.89;101002.09;1726247;83;25350;-59
2023/06/05 07:17:33;;;;;;;69.95;65.95;;;;;;;22.43;36.89;101001.56;1726193;83;25502;-57
2023/06/05 07:20:00;;;;;;;68.72;64.42;;;;;;;22.81;36.58;101004.41;1726262;83;25521;-55
2023/06/05 07:22:30;;;;;;;64.70;61.10;;;;;;;23.10;35.31;101006.94;1726203;83;27396;-56
2023/06/05 07:24:57;;;;;;;;;;;;;;;23.35;34.60;101004.45;1728671;83;27369;-59
2023/06/05 07:27:24;;;;;;;67.55;63.75;;;;;;;23.58;34.15;101005.66;1726232;83;25472;-58
2023/06/05 07:29:53;;;;;;;64.95;61.28;;;;;;;23.72;33.48;101003.61;1726129;83;25478;-58
2023/06/05 07:32:20;;;;;;;65.30;61.63;;;;;;;23.97;33.16;101009.93;1726378;83;25414;-56
2023/06/05 07:34:48;;;;;;;65.17;61.53;;;;;;;24.25;32.40;101010.73;1726178;83;27440;-58
2023/06/05 07:37:16;;;;;;;63.70;60.30;;;;;;;24.43;31.45;101003.33;1726197;83;25533;-58
2023/06/05 07:39:43;;;;;;;62.23;58.83;;;;;;;24.65;31.26;101005.43;1726197;83;25387;-59
2023/06/05 07:42:11;;;;;;;66.20;62.55;;;;;;;24.82;31.26;101007.47;1726161;83;25462;-58
2023/06/05 07:44:38;;;;;;;63.13;59.83;;;;;;;25.07;30.61;101005.39;1726061;83;25344;-56
2023/06/05 07:47:05;;;;;;;61.05;57.48;;;;;;;25.07;29.88;101001.23;1726228;83;27361;-55
2023/06/05 07:49:33;;;;;;;3.70;1.10;;;;;;;25.25;30.07;101004.84;1726049;83;25490;-57
2023/06/05 07:52:01;;;;;;;61.88;58.65;;;;;;;25.57;30.12;101005.48;1726191;83;25509;-56
2023/06/05 07:54:28;;;;;;;64.22;60.63;;;;;;;25.81;29.43;100997.00;1726309;83;26261;-58
2023/06/05 07:56:58;;;;;;;8.30;1.30;;;;;;;26.04;29.21;100994.43;1726179;83;25294;-58
2023/06/05 07:59:27;;;;;;;;;;;;;;;26.30;28.94;100994.56;1728533;83;27400;-54
2023/06/05 08:01:59;;;;;;;3.47;0.98;;;;;;;26.56;28.32;101002.20;1725949;83;25317;-59
2023/06/05 08:04:27;;;;;;;2.67;1.15;;;;;;;26.75;28.24;100999.58;1726309;83;25323;-58
2023/06/05 08:06:55;;;;;;;3.10;1.10;;;;;;;26.96;28.10;100998.09;1726380;83;25511;-55
2023/06/05 08:09:23;;;;;;;1.25;1.12;;;;;;;27.29;27.91;100996.54;1726223;83;25546;-60
2023/06/05 08:11:50;;;;;;;1.55;1.35;;;;;;;27.63;27.28;100990.34;1726131;83;29664;-66
2023/06/05 08:14:18;;;;;;;5.12;1.82;;;;;;;27.94;26.88;100994.85;1726002;83;27398;-67
2023/06/05 08:16:45;;;;;;;1.02;1.02;;;;;;;28.27;26.61;100995.91;1726193;83;25533;-66
2023/06/05 08:19:13;;;;;;;2.40;0.80;;;;;;;28.48;25.97;100993.48;1726209;83;25535;-66
2023/06/05 08:21:40;;;;;;;2.42;0.88;;;;;;;28.70;25.37;100996.81;1726168;83;25475;-66
2023/06/05 08:24:07;;;;;;;1.70;0.98;;;;;;;28.91;25.08;100997.73;1726148;83;27360;-66
2023/06/05 08:26:36;;;;;;;8.95;2.12;;;;;;;29.17;24.83;100997.00;1726022;83;25486;-65
2023/06/05 08:29:03;;;;;;;65.87;61.58;;;;;;;29.31;24.80;100996.00;1726254;83;25527;-65
2023/06/05 08:31:33;;;;;;;1.65;1.00;;;;;;;29.52;24.65;100995.47;1698901;83;25494;-66
2023/06/05 08:33:59;;;;;;;2.98;0.85;;;;;;;29.80;24.12;100993.63;1725881;83;25571;-66
2023/06/05 08:36:28;;;;;;;3.25;0.95;;;;;;;30.01;23.88;100993.67;1726134;83;27473;-66
2023/06/05 08:38:55;;;;;;;2.65;1.20;;;;;;;30.27;23.62;100983.60;1726107;83;25473;-65
2023/06/05 08:41:25;;;;;;;1.00;0.90;;;;;;;30.42;22.88;100997.48;1726146;83;25333;-65
2023/06/05 08:43:53;;;;;;;2.98;0.93;;;;;;;30.38;22.70;100985.61;1726030;83;26051;-65
2023/06/05 08:46:22;;;;;;;1.77;1.10;;;;;;;30.24;22.04;100987.25;1726229;83;25412;-64
2023/06/05 08:48:53;;;;;;;2.30;1.12;;;;;;;30.20;21.98;100992.12;1726103;83;27421;-64
2023/06/05 08:51:22;;;;;;;2.67;1.05;;;;;;;30.14;21.42;100999.59;1726123;83;25621;-63
2023/06/05 08:54:12;;;;;;;3.08;1.12;;;;;;;30.29;21.75;100990.93;1725683;83;25664;-63
2023/06/05 08:56:36;;;;;;;2.47;1.00;;;;;;;30.38;21.43;100991.19;1722121;83;25877;-63
2023/06/05 08:59:14;;;;;;;3.45;0.98;;;;;;;30.39;20.83;100987.78;1726181;83;25505;-63
2023/06/05 09:01:39;;;;;;;6.65;1.10;;;;;;;30.41;20.88;100993.13;1725836;83;27431;-63
2023/06/05 09:04:08;;;;;;;1.40;1.12;;;;;;;30.47;20.46;100993.41;1726172;83;25503;-64
2023/06/05 09:06:36;;;;;;;4.22;3.80;;;;;;;30.36;21.09;100986.66;1726294;83;25146;-64
2023/06/05 09:09:04;;;;;;;60.97;57.70;;;;;;;30.64;21.21;100984.48;1699725;83;25540;-63
2023/06/05 09:11:32;;;;;;;60.92;57.93;;;;;;;30.93;21.00;100976.88;1726139;83;25551;-64
2023/06/05 09:14:02;;;;;;;66.97;62.23;;;;;;;31.17;20.53;100975.53;1726282;83;27292;-63
2023/06/05 09:16:44;;;;;;;2.55;1.00;;;;;;;31.52;20.63;100965.34;1699305;83;25517;-62
2023/06/05 09:19:13;;;;;;;2.12;0.75;;;;;;;31.89;19.56;100993.95;1726158;83;25507;-62
2023/06/05 09:21:45;;;;;;;1.62;0.88;;;;;;;31.89;19.56;100993.95;1726092;83;25566;-64
2023/06/05 09:24:16;;;;;;;2.85;1.10;;;;;;;31.91;19.97;100978.91;1723724;83;25112;-63
2023/06/05 09:27:10;;;;;;;1.40;0.95;;;;;;;32.26;19.96;100973.60;1726161;83;28372;-63
2023/06/05 09:29:43;;;;;;;3.83;1.12;;;;;;;32.50;19.57;100972.70;1725990;83;27387;-63
2023/06/05 09:32:19;;;;;;;4.25;0.95;;;;;;;32.62;19.00;100973.37;1726232;83;25548;-62
2023/06/05 09:35:05;;;;;;;5.17;1.70;;;;;;;32.67;18.82;100972.81;1726124;83;25543;-60
2023/06/05 09:37:35;;;;;;;5.08;1.22;;;;;;;32.78;19.08;100968.90;1724535;83;25549;-60
2023/06/05 09:40:06;;;;;;;4.53;1.10;;;;;;;33.04;19.10;100972.52;1726452;83;27982;-61
2023/06/05 09:42:35;;;;;;;1.60;1.02;;;;;;;33.42;19.08;100973.10;1726110;83;25542;-61
2023/06/05 09:45:05;;;;;;;2.90;1.10;;;;;;;33.59;18.42;100973.73;1726023;83;25472;-62
2023/06/05 09:47:32;;;;;;;2.30;0.98;;;;;;;33.38;18.09;100971.83;1726118;83;25467;-62
2023/06/05 09:50:00;;;;;;;1.95;1.07;;;;;;;33.31;17.70;100971.44;1726135;83;25500;-61
2023/06/05 09:52:29;;;;;;;2.27;1.27;;;;;;;33.17;17.44;100975.31;1726086;83;27416;-59
2023/06/05 09:55:00;;;;;;;3.37;0.98;;;;;;;33.08;17.87;100963.36;1726129;83;25390;-60
2023/06/05 09:57:30;;;;;;;1.32;0.80;;;;;;;33.20;18.27;100963.98;1726074;83;25337;-54
2023/06/05 10:00:06;;;;;;;2.92;1.12;;;;;;;33.33;18.69;100954.80;1726148;83;25514;-61
2023/06/05 10:02:38;;;;;;;2.70;1.17;;;;;;;33.76;18.88;100952.73;1726198;83;25495;-61
2023/06/05 10:05:09;;;;;;;4.17;1.15;;;;;;;34.03;17.93;100948.58;1726185;83;27437;-60
2023/06/05 10:07:40;;;;;;;5.20;1.15;;;;;;;34.18;17.90;100952.43;1726055;83;25367;-57
2023/06/05 10:10:11;;;;;;;3.08;1.27;;;;;;;34.12;17.82;100945.05;1726105;83;25386;-57
2023/06/05 10:12:39;;;;;;;4.53;1.10;;;;;;;34.20;18.19;100940.78;1726121;83;25557;-58
2023/06/05 10:15:09;;;;;;;;;;;;;;;34.29;17.74;100943.62;1728674;83;25476;-56
2023/06/05 10:17:39;;;;;;;2.12;1.15;;;;;;;34.38;17.63;100950.72;1726147;83;27416;-58
2023/06/05 10:20:08;;;;;;;2.58;1.05;;;;;;;34.49;17.50;100944.69;1726079;83;25503;-58
2023/06/05 10:22:40;;;;;;;3.70;1.50;;;;;;;34.54;17.12;100925.06;1699586;83;25401;-58
2023/06/05 10:25:12;;;;;;;2.40;1.50;;;;;;;34.74;17.04;100924.72;1726088;83;26093;-62
2023/06/05 10:27:53;;;;;;;1.60;1.50;;;;;;;35.03;16.92;100934.17;1726233;83;25502;-58
2023/06/05 10:31:06;;;;;;;2.62;1.00;;;;;;;35.19;16.54;100925.30;1726119;83;27442;-57
2023/06/05 10:34:07;;;;;;;2.20;2.00;;;;;;;35.06;16.04;100929.03;1688980;84;25537;-59
2023/06/05 10:36:54;;;;;;;2.05;1.85;;;;;;;34.56;15.82;100926.78;1689058;85;25509;-58
2023/06/05 10:39:25;;;;;;;3.15;2.95;;;;;;;34.22;16.31;100927.87;1689117;85;25554;-58
2023/06/05 10:41:53;;;;;;;5.70;1.70;;;;;;;34.15;16.09;100925.91;1689033;85;25424;-58
2023/06/05 10:44:41;;;;;;;2.42;1.45;;;;;;;33.97;15.81;100927.35;1688970;85;27358;-58
2023/06/05 10:47:35;;;;;;;;;;;;;;;33.97;15.81;100927.35;1691432;85;25756;-58
2023/06/05 10:50:24;;;;;;;26.62;25.30;;;;;;;33.87;16.04;100926.49;1688989;84;25535;-56
2023/06/05 10:52:54;;;;;;;4.50;2.15;;;;;;;34.00;16.26;100917.22;1693954;84;32933;-55
2023/06/05 10:55:25;;;;;;;3.98;1.90;;;;;;;34.31;16.01;100910.29;1689102;85;25554;-57
2023/06/05 10:58:15;;;;;;;5.53;5.12;;;;;;;34.54;16.13;100906.80;1689100;85;27357;-56
2023/06/05 11:01:19;;;;;;;2.60;2.00;;;;;;;34.73;15.81;100914.71;1688962;85;25566;-58
2023/06/05 11:03:56;;;;;;;25.72;21.62;;;;;;;34.52;15.36;100910.70;1693355;83;25385;-59
2023/06/05 11:06:25;;;;;;;10.18;8.48;;;;;;;34.57;16.00;100912.91;1718983;83;25624;-59
2023/06/05 11:09:14;;;;;;;5.92;5.35;;;;;;;34.81;15.74;100918.03;1698419;84;25566;-57
2023/06/05 11:11:58;;;;;;;8.13;7.50;;;;;;;34.90;15.26;100906.81;1698325;84;27542;-58
2023/06/05 11:14:45;;;;;;;8.53;7.90;;;;;;;34.83;15.07;100907.87;1639881;86;25600;-57
2023/06/05 11:17:40;;;;;;;27.07;25.52;;;;;;;34.91;15.25;100907.75;1656359;86;25410;-58
2023/06/05 11:20:26;;;;;;;48.58;46.25;;;;;;;35.13;15.14;100906.88;1656326;86;26060;-57
2023/06/05 11:23:03;;;;;;;57.30;53.45;;;;;;;35.48;15.01;100909.44;1655996;86;25601;-59
2023/06/05 11:25:32;;;;;;;6.62;6.12;;;;;;;34.97;14.42;100902.30;1656572;86;27459;-58
2023/06/05 11:28:05;;;;;;;53.98;51.37;;;;;;;34.71;15.08;100903.94;1649075;87;25420;-60
2023/06/05 11:30:43;;;;;;;2.40;1.45;;;;;;;34.89;15.27;100893.39;1656327;86;25553;-58